الصفحة الرئيسية
METAR-TAF:

METAR-TAF

مطار :

Garfield County Regional Airport

Rifle, كولورادو, الولايات المتحدة

دائرة عرض: 39-31-30N, خط طول: 107-43-38W, ارتفاع: 1690 متر

مراقبة الطقس الحالي

تاريخ ووقت الإصدار 19 دقيقة قبل الساعة 05:53UTC
رياح هادئة
درجة الحرارة -5°درجة مئوية
الرطوبة 53%
ضغط 1026 hPa
الرؤية: 16.1 كم
سماء صافية

METAR: KRIL 210553Z AUTO 00000KT 10SM CLR M05/M13 A3029 RMK AO2 SLP275 T10501128 10050 21061 52012

زمن: 23:12 (06:12 UTC)

توقعات

تاريخ ووقت الإصدار 43 دقيقة قبل الساعة 05:29UTC
التوقعات صالحة من21 الساعة 06 UTC إلى 22 الساعة 06 UTC
ريح 5 عقدةمن اتجاهات متغيرة
الرؤية: 10 كم
سماء صافية

TAF: KRIL 210529Z 2106/2206 VRB05KT P6SM SKC

أرصاد الطقس والتوقعات من أكثر من 4000 مطار (تقارير الطقس للمطار METAR والتنبؤ بالطقس بالمطارTAF).

المحطات المتاحة هي النقط الصفراء والحمراء على الخريطة.

حرك المؤشر فوق النقطة لمعرفة اسم المحطة.

ثم انقر لمعرفة أرصاد وتوقعات الطقس.

لتغيير الخارطة: اضغط على الأزرار الخضراء مع رمز الصليب الأسود للتكبير. على الزر الأخضر مع شرطة للتصغير، أو على الأسهم الخضراء للخرائط المجاورة.


METAR-TAF: